الصفحة الرئيسية
METAR-TAF:

METAR-TAF

مطار :

Winslow, أريزونا, الولايات المتحدة

دائرة عرض: 35-01-41N, خط طول: 110-43-15W, ارتفاع: 1505 متر

مراقبة الطقس الحالي

تاريخ ووقت الإصدار 58 دقيقة قبل الساعة 08:56UTC
ريح 6 عقدة من الجنوب الغربي
درجة الحرارة 9°درجة مئوية
الرطوبة 21%
ضغط 1027 hPa
الرؤية: 16.1 كم
سماء صافية

METAR: KINW 290856Z AUTO 23006KT 10SM CLR 09/M12 A3033 RMK AO2 SLP217 T00891122 50003

زمن: 02:54 (09:54 UTC)

توقعات

تاريخ ووقت الإصدار 4ساعات و 34 دقيقة قبل الساعة 05:20UTC
التوقعات صالحة من29 الساعة 06 UTC إلى 30 الساعة 06 UTC
ريح 5 عقدةمن اتجاهات متغيرة
الرؤية: 10 كم
سماء صافية

TAF: KINW 290520Z 2906/3006 VRB05KT P6SM SKC

أرصاد الطقس والتوقعات من أكثر من 4000 مطار (تقارير الطقس للمطار METAR والتنبؤ بالطقس بالمطارTAF).

المحطات المتاحة هي النقط الصفراء والحمراء على الخريطة.

حرك المؤشر فوق النقطة لمعرفة اسم المحطة.

ثم انقر لمعرفة أرصاد وتوقعات الطقس.

لتغيير الخارطة: اضغط على الأزرار الخضراء مع رمز الصليب الأسود للتكبير. على الزر الأخضر مع شرطة للتصغير، أو على الأسهم الخضراء للخرائط المجاورة.


METAR-TAF: